DeLand, Florida
Current Conditions -  °F | °C
As of 5:53 AM on Friday 28 Nov 2014 (Local Time) from KDAB Reporting Station
Clear Clear  
Wind Chill: 37°   Ceiling: Unl
Heat Index: 42°   Visibility: 10mi
Dew Point: 34°   Wind: 8mph
Humidity: 73%   Direction: 310°NW
Pressure: 30.29"   Gusts: NA
Location:  29.07°N, 81.26°W
Report Text: KDAB 281053Z 31007KT 10SM CLR 06/01 A3029 RMK AO2 SLP255 T00560011
Loading
Personal Weather Stations






























Interactive Weather Map New forecast layout! Learn more

10-Day Weather Forecast

Advertisements
Track Severe Weather on mobile